Time;durP1;ratioP1;P1;durP2;ratioP2;P2;SDS_P1;SDS_P2;PMS_P1;PMS_P2;Temp;Humidity;BMP_temperature;BMP_pressure;BME280_temperature;BME280_humidity;BME280_pressure;Samples;Min_cycle;Max_cycle;Signal;HPM_P1;HPM_P2
2023/08/16 00:01:38;;;;;;;0.50;0.50;;;;;;;;;;10398782;28;20211;-77
2023/08/16 00:06:42;;;;;;;0.70;0.50;;;;;;;;;;10403913;28;20305;-76
2023/08/16 00:11:43;;;;;;;1.10;0.50;;;;;;;;;;10412278;28;20217;-78
2023/08/16 00:16:44;;;;;;;2.35;0.50;;;;;;;;;;10420832;28;20231;-76
2023/08/16 00:21:45;;;;;;;1.48;0.47;;;;;;;;;;10406483;28;20698;-76
2023/08/16 00:26:47;;;;;;;0.60;0.60;;;;;;;;;;10372650;28;20707;-78
2023/08/16 00:31:48;;;;;;;0.40;0.40;;;;;;;;;;10400268;28;20668;-77
2023/08/16 00:36:49;;;;;;;0.80;0.75;;;;;;;;;;10390198;28;20241;-77
2023/08/16 00:41:50;;;;;;;0.75;0.75;;;;;;;;;;10389112;28;20276;-77
2023/08/16 00:46:51;;;;;;;0.50;0.50;;;;;;;;;;10385580;28;20202;-74
2023/08/16 00:51:52;;;;;;;0.50;0.50;;;;;;;;;;10386179;28;20210;-74
2023/08/16 00:56:53;;;;;;;1.27;1.13;;;;;;;;;;10391331;28;20977;-75
2023/08/16 01:01:54;;;;;;;0.85;0.85;;;;;;;;;;10387253;28;20222;-76
2023/08/16 01:06:58;;;;;;;0.60;0.60;;;;;;;;;;10400160;28;20312;-77
2023/08/16 01:12:04;;;;;;;0.80;0.80;;;;;;;;;;10383754;28;20215;-76
2023/08/16 01:17:06;;;;;;;0.93;0.73;;;;;;;;;;10374092;28;20793;-76
2023/08/16 01:22:15;;;;;;;0.68;0.68;;;;;;;;;;10394145;28;20225;-76
2023/08/16 01:27:18;;;;;;;0.85;0.85;;;;;;;;;;10375196;28;20203;-74
2023/08/16 01:32:22;;;;;;;2.40;0.77;;;;;;;;;;10393206;28;20215;-76
2023/08/16 01:37:23;;;;;;;1.17;0.90;;;;;;;;;;10417142;28;20219;-75
2023/08/16 01:42:24;;;;;;;1.15;1.00;;;;;;;;;;10400918;28;20220;-76
2023/08/16 01:47:27;;;;;;;0.68;0.68;;;;;;;;;;10424809;28;20215;-76
2023/08/16 01:52:28;;;;;;;1.10;1.10;;;;;;;;;;10420400;28;20720;-76
2023/08/16 01:57:29;;;;;;;1.17;1.17;;;;;;;;;;10407570;28;20322;-75
2023/08/16 02:02:30;;;;;;;2.15;0.82;;;;;;;;;;10389631;28;20309;-76
2023/08/16 02:07:31;;;;;;;2.22;1.20;;;;;;;;;;10418340;28;21192;-76
2023/08/16 02:12:32;;;;;;;1.13;1.13;;;;;;;;;;10398382;28;20305;-76
2023/08/16 02:17:33;;;;;;;1.33;1.33;;;;;;;;;;10411024;28;20222;-75
2023/08/16 02:22:35;;;;;;;2.70;0.93;;;;;;;;;;10394374;28;20258;-76
2023/08/16 02:27:36;;;;;;;2.05;0.98;;;;;;;;;;10410930;28;20236;-76
2023/08/16 02:32:37;;;;;;;1.08;1.08;;;;;;;;;;10412844;28;20673;-75
2023/08/16 02:37:38;;;;;;;1.25;1.25;;;;;;;;;;10404088;28;20713;-76
2023/08/16 02:42:39;;;;;;;0.82;0.82;;;;;;;;;;10404564;28;20276;-76
2023/08/16 02:47:40;;;;;;;1.08;1.08;;;;;;;;;;10410877;28;20217;-74
2023/08/16 02:52:41;;;;;;;2.08;1.13;;;;;;;;;;10419916;28;20751;-76
2023/08/16 02:57:42;;;;;;;1.73;1.15;;;;;;;;;;10401425;28;20218;-76
2023/08/16 03:02:44;;;;;;;1.02;1.02;;;;;;;;;;10396614;28;20219;-75
2023/08/16 03:07:45;;;;;;;0.88;0.88;;;;;;;;;;10416754;28;20213;-76
2023/08/16 03:12:46;;;;;;;1.10;1.00;;;;;;;;;;10393799;28;20230;-76
2023/08/16 03:17:48;;;;;;;1.80;0.88;;;;;;;;;;10409401;28;20261;-75
2023/08/16 03:22:49;;;;;;;0.68;0.68;;;;;;;;;;10410860;28;20833;-76
2023/08/16 03:27:52;;;;;;;0.65;0.60;;;;;;;;;;10408796;28;20215;-76
2023/08/16 03:32:53;;;;;;;0.70;0.70;;;;;;;;;;10407479;28;20909;-76
2023/08/16 03:37:55;;;;;;;0.95;0.82;;;;;;;;;;10410415;28;20294;-77
2023/08/16 03:42:59;;;;;;;0.60;0.60;;;;;;;;;;10395958;28;20222;-76
2023/08/16 03:48:02;;;;;;;0.57;0.57;;;;;;;;;;10404337;28;20654;-76
2023/08/16 03:53:03;;;;;;;0.65;0.65;;;;;;;;;;10398621;28;20316;-76
2023/08/16 03:58:04;;;;;;;0.85;0.85;;;;;;;;;;10405247;28;20218;-75
2023/08/16 04:03:05;;;;;;;1.92;0.80;;;;;;;;;;10404535;28;20309;-77
2023/08/16 04:08:07;;;;;;;1.00;0.52;;;;;;;;;;10393676;28;20265;-76
2023/08/16 04:13:10;;;;;;;1.33;1.23;;;;;;;;;;10413964;28;20280;-75
2023/08/16 04:18:11;;;;;;;0.80;0.80;;;;;;;;;;10411441;28;20217;-76
2023/08/16 04:23:12;;;;;;;0.70;0.70;;;;;;;;;;10406931;28;20364;-77
2023/08/16 04:28:13;;;;;;;0.70;0.70;;;;;;;;;;10392034;28;20705;-76
2023/08/16 04:33:15;;;;;;;0.60;0.60;;;;;;;;;;10408487;28;20242;-77
2023/08/16 04:38:16;;;;;;;0.68;0.68;;;;;;;;;;10403150;28;20214;-77
2023/08/16 04:43:19;;;;;;;1.15;1.15;;;;;;;;;;10406445;28;20285;-80
2023/08/16 04:48:21;;;;;;;6.07;4.60;;;;;;;;;;10420976;28;20342;-79
2023/08/16 04:53:22;;;;;;;9.82;5.10;;;;;;;;;;10412178;28;20214;-80
2023/08/16 04:58:23;;;;;;;11.75;6.22;;;;;;;;;;10399419;28;20210;-78
2023/08/16 05:03:26;;;;;;;17.15;6.78;;;;;;;;;;10403631;28;20308;-78
2023/08/16 05:08:27;;;;;;;11.60;6.68;;;;;;;;;;10406262;28;20245;-80
2023/08/16 05:13:29;;;;;;;20.20;9.48;;;;;;;;;;10390015;28;20230;-77
2023/08/16 05:18:30;;;;;;;20.33;9.07;;;;;;;;;;10407902;28;20302;-77
2023/08/16 05:23:31;;;;;;;20.80;9.18;;;;;;;;;;10403211;28;21015;-78
2023/08/16 05:28:32;;;;;;;20.60;10.55;;;;;;;;;;10425645;28;20206;-78
2023/08/16 05:33:33;;;;;;;25.67;9.60;;;;;;;;;;10404711;28;20354;-81
2023/08/16 05:38:34;;;;;;;26.38;10.35;;;;;;;;;;10400271;28;20214;-78
2023/08/16 05:43:35;;;;;;;19.00;8.95;;;;;;;;;;10407791;28;20223;-79
2023/08/16 05:48:36;;;;;;;17.70;8.15;;;;;;;;;;10421481;28;20250;-80
2023/08/16 05:53:37;;;;;;;16.30;8.55;;;;;;;;;;10391563;28;20219;-79
2023/08/16 05:58:38;;;;;;;14.13;8.52;;;;;;;;;;10418015;28;20268;-78
2023/08/16 06:03:39;;;;;;;22.52;10.85;;;;;;;;;;10420436;28;20271;-77
2023/08/16 06:08:40;;;;;;;27.35;10.10;;;;;;;;;;10391965;28;20272;-77
2023/08/16 06:13:41;;;;;;;12.57;7.88;;;;;;;;;;10426166;28;20243;-80
2023/08/16 06:18:43;;;;;;;10.85;7.30;;;;;;;;;;10421725;28;20416;-80
2023/08/16 06:23:44;;;;;;;11.00;6.53;;;;;;;;;;10415676;28;20261;-79
2023/08/16 06:28:46;;;;;;;9.45;7.43;;;;;;;;;;10433334;28;20806;-79
2023/08/16 06:33:47;;;;;;;12.10;7.35;;;;;;;;;;10429384;28;20727;-79
2023/08/16 06:38:48;;;;;;;11.80;6.65;;;;;;;;;;10431880;28;20218;-79
2023/08/16 06:43:49;;;;;;;7.45;6.50;;;;;;;;;;10432774;28;20226;-79
2023/08/16 06:48:50;;;;;;;10.40;7.35;;;;;;;;;;10434250;28;20285;-79
2023/08/16 06:53:51;;;;;;;10.38;6.55;;;;;;;;;;10425487;28;20294;-80
2023/08/16 06:58:52;;;;;;;7.28;5.95;;;;;;;;;;10430057;28;20340;-79
2023/08/16 07:03:53;;;;;;;10.25;6.72;;;;;;;;;;10412388;28;20226;-79
2023/08/16 07:08:54;;;;;;;9.73;6.18;;;;;;;;;;10426687;28;20293;-79
2023/08/16 07:13:55;;;;;;;9.35;7.45;;;;;;;;;;10428135;28;20246;-79
2023/08/16 07:18:56;;;;;;;8.20;7.13;;;;;;;;;;10417159;28;20274;-80
2023/08/16 07:23:58;;;;;;;7.93;7.03;;;;;;;;;;10427418;28;20281;-80
2023/08/16 07:28:59;;;;;;;14.07;7.22;;;;;;;;;;10433446;28;20760;-79
2023/08/16 07:34:01;;;;;;;8.15;6.15;;;;;;;;;;10425216;28;20234;-79
2023/08/16 07:39:02;;;;;;;10.77;7.18;;;;;;;;;;10432106;28;20572;-81
2023/08/16 07:44:03;;;;;;;11.18;8.25;;;;;;;;;;10428781;28;20230;-82
2023/08/16 07:49:04;;;;;;;10.82;9.18;;;;;;;;;;10427461;28;20877;-80
2023/08/16 07:54:05;;;;;;;16.02;9.05;;;;;;;;;;10403297;28;20827;-80
2023/08/16 07:59:06;;;;;;;11.88;7.88;;;;;;;;;;10427914;28;20569;-81
2023/08/16 08:04:07;;;;;;;14.82;8.18;;;;;;;;;;10427264;28;20229;-80
2023/08/16 08:09:08;;;;;;;11.88;8.25;;;;;;;;;;10407479;28;20206;-82
2023/08/16 08:14:10;;;;;;;15.35;8.80;;;;;;;;;;10428993;28;20700;-80
2023/08/16 08:19:11;;;;;;;15.02;8.88;;;;;;;;;;10427373;28;20245;-80
2023/08/16 08:24:12;;;;;;;10.07;7.78;;;;;;;;;;10423837;28;20244;-80
2023/08/16 08:29:13;;;;;;;11.48;8.07;;;;;;;;;;10412664;28;20947;-81
2023/08/16 08:34:14;;;;;;;9.98;7.10;;;;;;;;;;10433513;28;20318;-81
2023/08/16 08:39:18;;;;;;;8.10;6.65;;;;;;;;;;10415439;28;20213;-81
2023/08/16 08:44:21;;;;;;;10.98;7.32;;;;;;;;;;10428891;28;20211;-80
2023/08/16 08:49:22;;;;;;;10.55;7.13;;;;;;;;;;10431298;28;20215;-83
2023/08/16 08:54:23;;;;;;;9.38;8.07;;;;;;;;;;10430841;28;20657;-80
2023/08/16 08:59:25;;;;;;;11.90;7.07;;;;;;;;;;10425793;28;20607;-81
2023/08/16 09:04:26;;;;;;;8.23;6.85;;;;;;;;;;10395261;28;20219;-80
2023/08/16 09:09:28;;;;;;;11.80;7.80;;;;;;;;;;10417640;28;20210;-80
2023/08/16 09:14:30;;;;;;;10.32;7.28;;;;;;;;;;10432654;28;20230;-80
2023/08/16 09:19:31;;;;;;;7.82;7.07;;;;;;;;;;10423484;28;20356;-79
2023/08/16 09:24:32;;;;;;;9.43;6.55;;;;;;;;;;10421395;28;20207;-78
2023/08/16 09:29:33;;;;;;;10.20;6.90;;;;;;;;;;10429694;28;20222;-78
2023/08/16 09:34:35;;;;;;;7.60;6.70;;;;;;;;;;10405601;28;20237;-80
2023/08/16 09:39:36;;;;;;;11.25;7.65;;;;;;;;;;10431626;28;20214;-78
2023/08/16 09:44:40;;;;;;;11.70;7.75;;;;;;;;;;10414892;28;20215;-82
2023/08/16 09:49:44;;;;;;;6.85;6.15;;;;;;;;;;10431030;28;20294;-79
2023/08/16 09:54:49;;;;;;;7.63;6.88;;;;;;;;;;10435553;28;20253;-80
2023/08/16 09:59:50;;;;;;;6.75;6.13;;;;;;;;;;10419462;28;20216;-81
2023/08/16 10:04:51;;;;;;;8.35;6.50;;;;;;;;;;10408959;28;20696;-78
2023/08/16 10:09:53;;;;;;;6.10;5.55;;;;;;;;;;10416319;28;20288;-80
2023/08/16 10:14:54;;;;;;;8.13;6.25;;;;;;;;;;10417988;28;20226;-78
2023/08/16 10:20:07;;;;;;;6.90;6.22;;;;;;;;;;10426786;28;20214;-79
2023/08/16 10:25:17;;;;;;;6.45;5.80;;;;;;;;;;10418474;28;20330;-80
2023/08/16 10:30:24;;;;;;;6.78;6.10;;;;;;;;;;10429652;28;20186;-78
2023/08/16 10:35:26;;;;;;;8.25;5.85;;;;;;;;;;10429168;28;20211;-81
2023/08/16 10:40:27;;;;;;;6.28;5.68;;;;;;;;;;10428698;28;20219;-78
2023/08/16 10:45:29;;;;;;;8.07;6.28;;;;;;;;;;10400174;28;20230;-79
2023/08/16 10:50:34;;;;;;;8.68;6.20;;;;;;;;;;10400558;28;21058;-80
2023/08/16 10:55:35;;;;;;;5.65;5.07;;;;;;;;;;10426021;28;20239;-77
2023/08/16 11:00:39;;;;;;;5.90;5.40;;;;;;;;;;10429275;28;20225;-80
2023/08/16 11:05:41;;;;;;;6.95;5.97;;;;;;;;;;10413366;28;20222;-77
2023/08/16 11:10:43;;;;;;;6.38;5.85;;;;;;;;;;10428145;28;20766;-80
2023/08/16 11:15:44;;;;;;;5.38;4.88;;;;;;;;;;10426935;28;20241;-78
2023/08/16 11:20:45;;;;;;;8.48;7.68;;;;;;;;;;10429888;28;20345;-79
2023/08/16 11:25:46;;;;;;;10.50;7.32;;;;;;;;;;10424509;28;20223;-79
2023/08/16 11:30:55;;;;;;;8.63;7.75;;;;;;;;;;10428740;28;20336;-79
2023/08/16 11:35:56;;;;;;;7.82;7.03;;;;;;;;;;10420344;28;20208;-80
2023/08/16 11:40:58;;;;;;;8.35;7.55;;;;;;;;;;10400618;28;21228;-80
2023/08/16 11:46:01;;;;;;;7.35;6.72;;;;;;;;;;10414857;28;20219;-80
2023/08/16 11:51:02;;;;;;;7.55;6.20;;;;;;;;;;10432690;28;20222;-80
2023/08/16 11:56:10;;;;;;;6.47;5.90;;;;;;;;;;10418110;28;20222;-80
2023/08/16 12:01:14;;;;;;;6.82;6.22;;;;;;;;;;10436844;28;20211;-79
2023/08/16 12:06:19;;;;;;;6.22;5.78;;;;;;;;;;10428331;28;20317;-80
2023/08/16 12:11:30;;;;;;;6.53;5.97;;;;;;;;;;10430999;28;20673;-78
2023/08/16 12:16:31;;;;;;;8.55;5.80;;;;;;;;;;10428018;28;20220;-79
2023/08/16 12:21:32;;;;;;;5.53;5.00;;;;;;;;;;10417844;28;20206;-78
2023/08/16 12:26:34;;;;;;;5.28;4.88;;;;;;;;;;10428147;28;20277;-77
2023/08/16 12:31:35;;;;;;;4.68;4.47;;;;;;;;;;10423081;28;20218;-79
2023/08/16 12:36:36;;;;;;;5.32;4.90;;;;;;;;;;10430430;28;20226;-80
2023/08/16 12:41:37;;;;;;;5.93;5.32;;;;;;;;;;10406133;28;20243;-79
2023/08/16 12:46:38;;;;;;;3.85;3.65;;;;;;;;;;10429327;28;20248;-81
2023/08/16 12:51:39;;;;;;;4.60;4.30;;;;;;;;;;10431761;28;20222;-80
2023/08/16 12:56:40;;;;;;;4.35;4.15;;;;;;;;;;10435155;28;20282;-79
2023/08/16 13:01:41;;;;;;;3.88;3.70;;;;;;;;;;10429223;28;20255;-79
2023/08/16 13:06:42;;;;;;;3.97;3.67;;;;;;;;;;10418308;28;20222;-80
2023/08/16 13:11:43;;;;;;;5.47;3.33;;;;;;;;;;10433007;28;20207;-81
2023/08/16 13:16:44;;;;;;;3.50;3.15;;;;;;;;;;10433624;28;20235;-79
2023/08/16 13:21:45;;;;;;;3.05;2.83;;;;;;;;;;10412352;28;20203;-78
2023/08/16 13:26:47;;;;;;;2.80;2.60;;;;;;;;;;10409768;28;20861;-79
2023/08/16 13:31:48;;;;;;;2.83;2.72;;;;;;;;;;10433454;28;20306;-78
2023/08/16 13:36:49;;;;;;;2.90;2.80;;;;;;;;;;10413244;28;20261;-78
2023/08/16 13:41:50;;;;;;;3.08;2.97;;;;;;;;;;10417516;28;20222;-78
2023/08/16 13:46:51;;;;;;;3.67;3.42;;;;;;;;;;10403879;28;20867;-77
2023/08/16 13:51:52;;;;;;;2.85;2.75;;;;;;;;;;10420625;28;20943;-79
2023/08/16 13:56:54;;;;;;;2.92;2.85;;;;;;;;;;10422954;28;20284;-78
2023/08/16 14:01:55;;;;;;;2.70;2.63;;;;;;;;;;10410613;28;20236;-78
2023/08/16 14:06:56;;;;;;;3.22;3.03;;;;;;;;;;10425111;28;20327;-77
2023/08/16 14:11:57;;;;;;;3.75;3.45;;;;;;;;;;10399820;28;20886;-78
2023/08/16 14:16:58;;;;;;;2.80;2.70;;;;;;;;;;10426172;28;20225;-77
2023/08/16 14:21:59;;;;;;;2.63;2.55;;;;;;;;;;10408465;28;20409;-78
2023/08/16 14:27:01;;;;;;;2.83;2.72;;;;;;;;;;10413395;28;20231;-79
2023/08/16 14:32:02;;;;;;;2.72;2.53;;;;;;;;;;10406845;28;20571;-78
2023/08/16 14:37:03;;;;;;;3.40;3.10;;;;;;;;;;10396563;28;20207;-78
2023/08/16 14:42:04;;;;;;;2.60;2.60;;;;;;;;;;10408130;28;20304;-80
2023/08/16 14:47:05;;;;;;;2.80;2.72;;;;;;;;;;10411640;28;20332;-77
2023/08/16 14:52:07;;;;;;;2.70;2.60;;;;;;;;;;10426549;28;20218;-78
2023/08/16 14:57:08;;;;;;;2.50;2.40;;;;;;;;;;10415572;28;20218;-78
2023/08/16 15:02:10;;;;;;;2.33;2.22;;;;;;;;;;10402905;28;20357;-77
2023/08/16 15:07:11;;;;;;;2.72;2.63;;;;;;;;;;10411395;28;20216;-77
2023/08/16 15:12:12;;;;;;;2.65;2.55;;;;;;;;;;10405120;28;20211;-79
2023/08/16 15:17:13;;;;;;;2.33;2.22;;;;;;;;;;10420257;28;20314;-78
2023/08/16 15:22:14;;;;;;;2.20;2.05;;;;;;;;;;10404528;28;20571;-78
2023/08/16 15:27:15;;;;;;;2.15;2.05;;;;;;;;;;10405920;28;20226;-78
2023/08/16 15:32:16;;;;;;;2.10;2.00;;;;;;;;;;10433019;28;20223;-79
2023/08/16 15:37:19;;;;;;;1.92;1.92;;;;;;;;;;10433402;28;20764;-79
2023/08/16 15:42:21;;;;;;;2.28;2.10;;;;;;;;;;10399439;28;20275;-78
2023/08/16 15:47:22;;;;;;;2.20;2.10;;;;;;;;;;10413605;28;20230;-81
2023/08/16 15:52:23;;;;;;;1.65;1.65;;;;;;;;;;10429478;28;20245;-79
2023/08/16 15:57:25;;;;;;;2.20;2.20;;;;;;;;;;10422440;28;20847;-81
2023/08/16 16:02:26;;;;;;;1.70;1.52;;;;;;;;;;10399555;28;20237;-79
2023/08/16 16:07:27;;;;;;;1.88;1.83;;;;;;;;;;10393055;28;20225;-80
2023/08/16 16:12:28;;;;;;;1.75;1.75;;;;;;;;;;10413534;28;20235;-81
2023/08/16 16:17:37;;;;;;;2.08;1.98;;;;;;;;;;10486563;27;20570;-81
2023/08/16 16:22:38;;;;;;;2.47;2.38;;;;;;;;;;10424120;28;20215;-81
2023/08/16 16:27:39;;;;;;;2.42;2.22;;;;;;;;;;10401339;28;20708;-79
2023/08/16 16:32:40;;;;;;;2.22;2.13;;;;;;;;;;10403272;28;20214;-76
2023/08/16 16:37:41;;;;;;;1.95;1.85;;;;;;;;;;10409152;28;20739;-78
2023/08/16 16:42:42;;;;;;;2.67;2.13;;;;;;;;;;10405993;28;20261;-79
2023/08/16 16:47:43;;;;;;;2.35;2.30;;;;;;;;;;10413341;28;20215;-80
2023/08/16 16:52:44;;;;;;;2.20;2.20;;;;;;;;;;10414640;28;20215;-80
2023/08/16 16:57:45;;;;;;;2.88;2.25;;;;;;;;;;10415599;28;20690;-79
2023/08/16 17:02:46;;;;;;;1.75;1.65;;;;;;;;;;10412315;28;20209;-80
2023/08/16 17:07:47;;;;;;;1.70;1.70;;;;;;;;;;10411308;28;20225;-78
2023/08/16 17:12:50;;;;;;;1.95;1.95;;;;;;;;;;10404596;28;20220;-78
2023/08/16 17:17:51;;;;;;;1.95;1.85;;;;;;;;;;10446183;28;20219;-79
2023/08/16 17:22:53;;;;;;;2.90;2.10;;;;;;;;;;10443602;28;20271;-78
2023/08/16 17:27:56;;;;;;;2.60;2.50;;;;;;;;;;10421430;28;20863;-78
2023/08/16 17:32:57;;;;;;;3.10;2.80;;;;;;;;;;10414285;28;20228;-77
2023/08/16 17:37:58;;;;;;;3.22;3.13;;;;;;;;;;10414464;28;20243;-78
2023/08/16 17:42:59;;;;;;;3.28;3.10;;;;;;;;;;10418944;28;20700;-80
2023/08/16 17:48:00;;;;;;;3.03;2.92;;;;;;;;;;10413246;28;20215;-80
2023/08/16 17:53:01;;;;;;;5.28;3.20;;;;;;;;;;10399335;28;20215;-76
2023/08/16 17:58:03;;;;;;;4.28;3.97;;;;;;;;;;10413479;28;20982;-78
2023/08/16 18:03:04;;;;;;;3.60;3.40;;;;;;;;;;10352221;28;21047;-76
2023/08/16 18:08:05;;;;;;;6.20;4.13;;;;;;;;;;10370010;28;20238;-77
2023/08/16 18:13:06;;;;;;;4.00;3.75;;;;;;;;;;10375903;28;20330;-78
2023/08/16 18:18:07;;;;;;;3.20;3.10;;;;;;;;;;10380173;28;20335;-79
2023/08/16 18:23:08;;;;;;;2.70;2.60;;;;;;;;;;10370697;28;20200;-79
2023/08/16 18:28:09;;;;;;;3.42;3.33;;;;;;;;;;10370496;28;20685;-76
2023/08/16 18:33:10;;;;;;;3.15;2.90;;;;;;;;;;10374805;28;20226;-78
2023/08/16 18:38:11;;;;;;;3.00;2.80;;;;;;;;;;10369239;28;20334;-76
2023/08/16 18:43:13;;;;;;;3.10;3.00;;;;;;;;;;10370100;28;20208;-77
2023/08/16 18:48:14;;;;;;;3.42;3.33;;;;;;;;;;10372446;28;20701;-77
2023/08/16 18:53:16;;;;;;;3.40;3.20;;;;;;;;;;10368869;28;20614;-75
2023/08/16 18:58:17;;;;;;;3.47;3.20;;;;;;;;;;10371670;28;20202;-79
2023/08/16 19:03:18;;;;;;;3.70;3.50;;;;;;;;;;10365790;28;20223;-78
2023/08/16 19:08:20;;;;;;;3.17;3.03;;;;;;;;;;10369886;28;20262;-78
2023/08/16 19:13:21;;;;;;;3.17;3.08;;;;;;;;;;10369640;28;20216;-79
2023/08/16 19:18:22;;;;;;;3.90;3.53;;;;;;;;;;10367328;28;20595;-78
2023/08/16 19:23:24;;;;;;;3.92;3.60;;;;;;;;;;10363964;28;20231;-77
2023/08/16 19:28:25;;;;;;;3.17;2.90;;;;;;;;;;10366174;28;20218;-78
2023/08/16 19:33:26;;;;;;;3.08;2.88;;;;;;;;;;10366369;28;20215;-77
2023/08/16 19:38:27;;;;;;;3.28;2.97;;;;;;;;;;10367958;28;20756;-80
2023/08/16 19:43:28;;;;;;;3.38;3.15;;;;;;;;;;10365208;28;20227;-78
2023/08/16 19:48:29;;;;;;;4.53;2.85;;;;;;;;;;10365699;28;20222;-79
2023/08/16 19:53:30;;;;;;;2.75;2.65;;;;;;;;;;10367871;28;20219;-78
2023/08/16 19:58:31;;;;;;;3.72;3.22;;;;;;;;;;10364988;28;20203;-79
2023/08/16 20:03:32;;;;;;;2.28;2.22;;;;;;;;;;10362829;28;20210;-79
2023/08/16 20:08:33;;;;;;;2.30;2.30;;;;;;;;;;10360298;28;20269;-78
2023/08/16 20:13:34;;;;;;;2.38;2.28;;;;;;;;;;10362642;28;20767;-78
2023/08/16 20:18:35;;;;;;;2.53;1.98;;;;;;;;;;10372503;28;20281;-77
2023/08/16 20:23:37;;;;;;;1.98;1.95;;;;;;;;;;10360710;28;20226;-80
2023/08/16 20:28:38;;;;;;;2.13;2.08;;;;;;;;;;10374974;28;20207;-79
2023/08/16 20:33:40;;;;;;;2.33;2.22;;;;;;;;;;10375026;28;20216;-79
2023/08/16 20:38:41;;;;;;;2.53;2.30;;;;;;;;;;10358772;28;20306;-77
2023/08/16 20:43:43;;;;;;;2.13;2.03;;;;;;;;;;10373344;28;20230;-77
2023/08/16 20:48:44;;;;;;;2.33;2.13;;;;;;;;;;10372949;28;20208;-80
2023/08/16 20:53:45;;;;;;;1.63;1.63;;;;;;;;;;10363962;28;20231;-80
2023/08/16 20:58:46;;;;;;;2.33;2.22;;;;;;;;;;10373299;28;20263;-79
2023/08/16 21:03:47;;;;;;;1.95;1.85;;;;;;;;;;10364556;28;20320;-78
2023/08/16 21:08:48;;;;;;;1.90;1.80;;;;;;;;;;10369115;28;20269;-80
2023/08/16 21:13:49;;;;;;;1.95;1.67;;;;;;;;;;10367508;28;20235;-79
2023/08/16 21:18:50;;;;;;;1.50;1.40;;;;;;;;;;10380039;28;20220;-80
2023/08/16 21:23:51;;;;;;;2.15;2.05;;;;;;;;;;10382855;28;20215;-79
2023/08/16 21:28:52;;;;;;;2.05;1.98;;;;;;;;;;10380599;28;21064;-78
2023/08/16 21:33:55;;;;;;;1.75;1.63;;;;;;;;;;10383352;28;20212;-78
2023/08/16 21:38:56;;;;;;;1.73;1.63;;;;;;;;;;10379018;28;20307;-77
2023/08/16 21:43:57;;;;;;;1.60;1.50;;;;;;;;;;10379056;28;20224;-79
2023/08/16 21:48:58;;;;;;;1.67;1.60;;;;;;;;;;10377045;28;20246;-78
2023/08/16 21:53:59;;;;;;;1.50;1.50;;;;;;;;;;10379617;28;20790;-78
2023/08/16 21:59:00;;;;;;;1.58;1.48;;;;;;;;;;10361868;28;20754;-77
2023/08/16 22:04:02;;;;;;;1.40;1.30;;;;;;;;;;10372951;28;20643;-79
2023/08/16 22:09:03;;;;;;;1.40;1.40;;;;;;;;;;10380267;28;20230;-79
2023/08/16 22:14:04;;;;;;;1.20;1.20;;;;;;;;;;10374188;28;20615;-79
2023/08/16 22:19:05;;;;;;;1.85;1.50;;;;;;;;;;10374419;28;20681;-79
2023/08/16 22:24:06;;;;;;;1.10;1.10;;;;;;;;;;10374773;28;20217;-77
2023/08/16 22:29:08;;;;;;;3.42;1.30;;;;;;;;;;10373108;28;20208;-79
2023/08/16 22:34:09;;;;;;;1.75;1.10;;;;;;;;;;10372464;28;20219;-78
2023/08/16 22:39:10;;;;;;;1.23;1.13;;;;;;;;;;10375140;28;20632;-79
2023/08/16 22:44:11;;;;;;;0.90;0.90;;;;;;;;;;10392097;28;20338;-79
2023/08/16 22:49:12;;;;;;;0.88;0.88;;;;;;;;;;10378964;28;20284;-79
2023/08/16 22:54:13;;;;;;;2.40;1.10;;;;;;;;;;10373390;28;20228;-79
2023/08/16 22:59:14;;;;;;;1.20;1.20;;;;;;;;;;10377821;28;20220;-79
2023/08/16 23:04:15;;;;;;;1.27;1.15;;;;;;;;;;10378307;28;20230;-79
2023/08/16 23:09:16;;;;;;;1.40;0.90;;;;;;;;;;10370126;28;20216;-79
2023/08/16 23:14:17;;;;;;;2.50;1.00;;;;;;;;;;10370960;28;20802;-78
2023/08/16 23:19:18;;;;;;;1.42;0.88;;;;;;;;;;10377002;28;20203;-78
2023/08/16 23:24:19;;;;;;;2.53;0.95;;;;;;;;;;10373539;28;20227;-79
2023/08/16 23:29:20;;;;;;;0.95;0.95;;;;;;;;;;10374694;28;20269;-79
2023/08/16 23:34:21;;;;;;;0.70;0.70;;;;;;;;;;10376562;28;20322;-78
2023/08/16 23:39:22;;;;;;;0.77;0.77;;;;;;;;;;10374058;28;20504;-79
2023/08/16 23:44:27;;;;;;;1.85;1.00;;;;;;;;;;10379846;28;20226;-79
2023/08/16 23:49:28;;;;;;;1.27;1.27;;;;;;;;;;10375140;28;20211;-80
2023/08/16 23:54:32;;;;;;;1.25;1.25;;;;;;;;;;10373939;28;20251;-78
2023/08/16 23:59:33;;;;;;;1.23;1.00;;;;;;;;;;10371038;28;20345;-78
